Time;durP1;ratioP1;P1;durP2;ratioP2;P2;SDS_P1;SDS_P2;PMS_P1;PMS_P2;Temp;Humidity;BMP_temperature;BMP_pressure;BME280_temperature;BME280_humidity;BME280_pressure;Samples;Min_cycle;Max_cycle;Signal;HPM_P1;HPM_P2
2023/11/15 00:01:54;;;;;;;12.03;5.00;;;;;;;9.63;90.62;98573.16;1754394;81;27331;-51
2023/11/15 00:04:21;;;;;;;18.48;5.37;;;;;;;9.64;90.50;98554.49;1737142;81;25698;-52
2023/11/15 00:06:47;;;;;;;13.48;4.95;;;;;;;9.65;90.54;98543.89;1737290;81;25414;-51
2023/11/15 00:09:14;;;;;;;12.03;4.30;;;;;;;9.65;90.49;98546.05;1754381;81;25628;-51
2023/11/15 00:11:41;;;;;;;12.80;4.70;;;;;;;9.67;90.50;98540.28;1754453;81;25566;-53
2023/11/15 00:14:07;;;;;;;11.97;5.22;;;;;;;9.68;90.19;98537.81;1754417;81;28321;-52
2023/11/15 00:16:34;;;;;;;9.03;4.30;;;;;;;9.70;90.38;98538.25;1737227;81;26051;-50
2023/11/15 00:19:07;;;;;;;12.82;4.80;;;;;;;9.72;90.23;98542.19;1754364;81;25558;-52
2023/11/15 00:21:30;;;;;;;16.02;5.10;;;;;;;9.74;90.18;98537.79;1753016;81;32677;-51
2023/11/15 00:23:57;;;;;;;18.77;5.00;;;;;;;9.77;90.00;98534.95;1754459;81;25537;-52
2023/11/15 00:26:24;;;;;;;18.05;4.80;;;;;;;9.79;89.55;98536.73;1754380;81;27301;-51
2023/11/15 00:28:52;;;;;;;12.95;4.30;;;;;;;9.81;89.74;98531.80;1762492;81;25651;-50
2023/11/15 00:31:19;;;;;;;13.30;4.12;;;;;;;9.81;89.56;98537.20;1764449;80;25590;-50
2023/11/15 00:33:46;;;;;;;14.15;4.30;;;;;;;9.79;89.27;98534.03;1811948;79;25570;-51
2023/11/15 00:36:13;;;;;;;13.30;3.67;;;;;;;9.79;89.14;98542.13;1811935;79;25568;-51
2023/11/15 00:38:40;;;;;;;23.10;4.33;;;;;;;9.77;89.11;98539.78;1811945;79;27899;-52
2023/11/15 00:41:08;;;;;;;10.78;3.92;;;;;;;9.76;89.05;98528.00;1811872;79;25588;-52
2023/11/15 00:43:35;;;;;;;9.68;3.65;;;;;;;9.76;89.03;98534.75;1805079;79;25386;-52
2023/11/15 00:46:03;;;;;;;14.43;4.12;;;;;;;9.73;88.93;98523.48;1811945;79;26172;-49
2023/11/15 00:48:31;;;;;;;20.25;4.65;;;;;;;9.76;88.98;98534.75;1818294;78;25417;-51
2023/11/15 00:50:57;;;;;;;21.25;4.42;;;;;;;9.73;88.81;98533.52;1811916;79;27305;-50
2023/11/15 00:53:25;;;;;;;13.38;4.15;;;;;;;9.71;88.94;98535.20;1811811;79;25608;-50
2023/11/15 00:55:51;;;;;;;13.53;4.83;;;;;;;9.69;88.69;98529.37;1811866;79;25562;-50
2023/11/15 00:58:19;;;;;;;11.83;4.10;;;;;;;9.67;88.07;98529.48;1811892;79;25619;-54
2023/11/15 01:00:47;;;;;;;9.35;4.30;;;;;;;9.67;88.79;98540.28;1811971;79;25585;-54
2023/11/15 01:03:25;;;;;;;10.70;4.00;;;;;;;9.64;88.80;98536.38;1812192;79;28076;-54
2023/11/15 01:05:44;;;;;;;11.40;4.42;;;;;;;9.62;88.74;98537.28;1810383;78;25426;-54
2023/11/15 01:08:10;;;;;;;14.15;4.35;;;;;;;9.60;88.54;98531.42;1811976;79;25386;-51
2023/11/15 01:10:37;;;;;;;14.35;4.08;;;;;;;9.58;88.63;98541.79;1811771;79;26203;-52
2023/11/15 01:13:05;;;;;;;9.63;4.17;;;;;;;9.57;88.72;98538.08;1811682;79;25563;-52
2023/11/15 01:15:31;;;;;;;14.73;4.58;;;;;;;9.53;88.56;98544.73;1811246;79;27300;-55
2023/11/15 01:17:58;;;;;;;9.55;4.25;;;;;;;9.50;88.77;98540.02;1811631;79;25675;-55
2023/11/15 01:20:25;;;;;;;11.15;3.50;;;;;;;9.48;88.76;98552.54;1811906;79;25525;-51
2023/11/15 01:22:52;;;;;;;10.50;3.62;;;;;;;9.47;88.99;98549.61;1811900;79;25670;-52
2023/11/15 01:25:21;;;;;;;10.85;3.70;;;;;;;9.44;88.92;98550.28;1811940;79;25396;-51
2023/11/15 01:27:47;;;;;;;14.47;4.33;;;;;;;9.42;89.15;98547.73;1818112;78;27419;-50
2023/11/15 01:30:14;;;;;;;12.95;4.15;;;;;;;9.42;89.40;98551.20;1811793;79;25566;-52
2023/11/15 01:32:42;;;;;;;10.28;4.00;;;;;;;9.43;89.60;98537.13;1798681;79;25412;-51
2023/11/15 01:35:09;;;;;;;14.75;4.40;;;;;;;9.42;89.65;98543.11;1770592;81;25685;-52
2023/11/15 01:37:36;;;;;;;11.90;4.05;;;;;;;9.42;89.56;98545.03;1770681;81;25411;-51
2023/11/15 01:40:06;;;;;;;14.70;4.17;;;;;;;9.39;89.52;98543.01;1770571;81;27333;-51
2023/11/15 01:42:33;;;;;;;12.20;3.60;;;;;;;9.37;89.51;98543.35;1795953;79;25551;-51
2023/11/15 01:45:02;;;;;;;10.90;3.85;;;;;;;9.32;89.64;98543.02;1796342;79;25478;-52
2023/11/15 01:47:30;;;;;;;12.10;4.12;;;;;;;9.31;89.73;98553.61;1770692;81;25635;-51
2023/11/15 01:49:59;;;;;;;15.05;4.70;;;;;;;9.27;89.83;98545.96;1796074;79;25548;-52
2023/11/15 01:52:28;;;;;;;9.38;3.72;;;;;;;9.26;89.99;98556.55;1778706;79;27342;-51
2023/11/15 01:54:58;;;;;;;11.08;4.28;;;;;;;9.25;90.20;98552.84;1770766;81;25392;-52
2023/11/15 01:57:26;;;;;;;15.38;3.70;;;;;;;9.25;90.37;98552.84;1796100;79;25377;-55
2023/11/15 01:59:54;;;;;;;10.43;4.05;;;;;;;9.25;90.62;98557.67;1751044;81;26297;-53
2023/11/15 02:02:21;;;;;;;10.70;4.55;;;;;;;9.26;90.74;98555.20;1805071;79;25603;-55
2023/11/15 02:04:48;;;;;;;10.20;3.47;;;;;;;9.28;90.94;98551.59;1770559;81;27036;-52
2023/11/15 02:07:15;;;;;;;10.82;3.83;;;;;;;9.29;91.01;98557.19;1795887;79;25765;-51
2023/11/15 02:09:44;;;;;;;15.28;4.05;;;;;;;9.30;90.96;98558.77;1795995;79;25517;-51
2023/11/15 02:12:10;;;;;;;11.95;3.52;;;;;;;9.32;91.03;98554.39;1770519;81;25637;-51
2023/11/15 02:14:37;;;;;;;12.53;4.50;;;;;;;9.32;91.09;98556.52;1776678;80;25548;-52
2023/11/15 02:17:05;;;;;;;13.58;3.98;;;;;;;9.33;91.10;98555.40;1796014;79;27872;-53
2023/11/15 02:19:32;;;;;;;15.45;4.37;;;;;;;9.36;91.19;98553.91;1770409;81;25652;-51
2023/11/15 02:21:59;;;;;;;8.95;4.50;;;;;;;9.38;91.22;98550.33;1750891;81;25761;-52
2023/11/15 02:24:26;;;;;;;16.48;4.05;;;;;;;9.38;91.21;98549.52;1795418;79;26277;-53
2023/11/15 02:26:53;;;;;;;9.73;3.67;;;;;;;9.41;91.19;98559.64;1796021;79;25620;-51
2023/11/15 02:29:21;;;;;;;13.10;4.28;;;;;;;9.41;91.16;98561.77;1770547;81;27943;-53
2023/11/15 02:31:47;;;;;;;13.45;4.22;;;;;;;9.42;91.16;98560.64;1739361;81;25701;-51
2023/11/15 02:34:14;;;;;;;13.10;3.67;;;;;;;9.43;91.15;98560.08;1738409;82;25644;-51
2023/11/15 02:36:42;;;;;;;16.75;4.25;;;;;;;9.43;91.10;98564.12;1738350;82;26209;-52
2023/11/15 02:39:10;;;;;;;12.82;4.05;;;;;;;9.44;91.05;98560.30;1738413;82;25592;-51
2023/11/15 02:41:37;;;;;;;22.42;4.50;;;;;;;9.44;91.14;98564.35;1711909;82;27917;-52
2023/11/15 02:44:05;;;;;;;11.03;3.77;;;;;;;9.43;91.11;98564.12;1738460;82;25395;-54
2023/11/15 02:46:32;;;;;;;13.20;4.42;;;;;;;9.44;91.12;98572.45;1713279;82;25640;-54
2023/11/15 02:48:59;;;;;;;12.55;3.95;;;;;;;9.45;91.15;98568.61;1738488;82;25582;-52
2023/11/15 02:51:25;;;;;;;10.30;3.67;;;;;;;9.44;91.13;98573.22;1738556;82;25649;-54
2023/11/15 02:53:54;;;;;;;7.87;3.77;;;;;;;9.44;91.22;98569.75;1738554;82;27325;-52
2023/11/15 02:56:21;;;;;;;13.38;3.58;;;;;;;9.44;91.30;98575.92;1738443;82;25409;-51
2023/11/15 02:58:48;;;;;;;7.53;3.27;;;;;;;9.46;91.24;98574.23;1738522;82;25554;-52
2023/11/15 03:01:16;;;;;;;10.08;4.08;;;;;;;9.46;91.35;98578.28;1738471;82;25373;-51
2023/11/15 03:03:43;;;;;;;9.55;3.22;;;;;;;9.47;91.44;98585.27;1713633;82;25610;-52
2023/11/15 03:06:09;;;;;;;17.85;3.75;;;;;;;9.46;91.46;98583.11;1738518;82;27334;-53
2023/11/15 03:08:36;;;;;;;12.80;3.95;;;;;;;9.48;91.51;98579.53;1712946;82;25774;-52
2023/11/15 03:11:04;;;;;;;7.33;3.58;;;;;;;9.49;91.55;98582.43;1738532;82;25408;-51
2023/11/15 03:13:31;;;;;;;11.90;4.00;;;;;;;9.50;91.61;98594.00;1738498;82;26286;-54
2023/11/15 03:15:57;;;;;;;11.75;3.60;;;;;;;9.50;91.52;98590.76;1738570;82;25540;-54
2023/11/15 03:18:25;;;;;;;17.05;4.37;;;;;;;9.50;91.55;98594.80;1738578;82;27330;-52
2023/11/15 03:20:51;;;;;;;9.78;3.62;;;;;;;9.49;91.52;98594.57;1738451;82;25373;-51
2023/11/15 03:23:19;;;;;;;8.85;3.77;;;;;;;9.49;91.49;98589.17;1738511;82;25528;-50
2023/11/15 03:25:46;;;;;;;12.35;3.95;;;;;;;9.49;91.38;98589.75;1738474;82;25735;-54
2023/11/15 03:28:13;;;;;;;12.35;3.92;;;;;;;9.49;91.38;98591.87;1738540;82;25603;-53
2023/11/15 03:30:40;;;;;;;11.97;4.10;;;;;;;9.49;91.45;98595.92;1738486;82;27302;-52
2023/11/15 03:33:07;;;;;;;10.98;4.37;;;;;;;9.48;91.43;98590.86;1755924;81;25614;-51
2023/11/15 03:35:33;;;;;;;7.97;4.17;;;;;;;9.47;91.45;98587.39;1785546;80;25534;-52
2023/11/15 03:38:01;;;;;;;11.53;4.10;;;;;;;9.47;91.44;98589.31;1752711;81;25621;-50
2023/11/15 03:40:28;;;;;;;10.90;4.75;;;;;;;9.47;91.41;98592.78;1785600;79;25366;-54
2023/11/15 03:42:55;;;;;;;6.33;3.60;;;;;;;9.44;91.41;98590.77;1754432;81;27353;-51
2023/11/15 03:45:22;;;;;;;10.82;4.33;;;;;;;9.45;91.51;98599.64;1754317;81;25402;-54
2023/11/15 03:47:49;;;;;;;12.00;4.47;;;;;;;9.43;91.51;98600.01;1754444;81;25511;-54
2023/11/15 03:50:16;;;;;;;10.85;4.70;;;;;;;9.44;91.47;98598.09;1754401;81;25725;-52
2023/11/15 03:52:42;;;;;;;11.30;4.75;;;;;;;9.42;91.56;98606.52;1754467;81;25432;-51
2023/11/15 03:55:09;;;;;;;12.03;3.72;;;;;;;9.42;91.61;98607.88;1754417;81;27769;-49
2023/11/15 03:57:36;;;;;;;12.90;3.87;;;;;;;9.41;91.70;98609.56;1754320;81;25536;-51
2023/11/15 04:00:06;;;;;;;8.80;3.47;;;;;;;9.38;91.67;98605.65;1754417;81;25353;-54
2023/11/15 04:02:33;;;;;;;11.25;4.28;;;;;;;9.38;91.74;98608.89;1754393;81;26213;-50
2023/11/15 04:05:00;;;;;;;11.60;3.62;;;;;;;9.37;91.76;98612.16;1754420;81;25594;-53
2023/11/15 04:07:27;;;;;;;9.75;3.92;;;;;;;9.37;91.71;98608.11;1754426;81;27897;-51
2023/11/15 04:09:53;;;;;;;9.55;3.80;;;;;;;9.37;91.81;98617.55;1754379;81;25600;-50
2023/11/15 04:12:21;;;;;;;10.25;3.87;;;;;;;9.36;91.80;98607.88;1754394;81;25514;-50
2023/11/15 04:14:48;;;;;;;9.85;3.27;;;;;;;9.36;91.83;98618.67;1754378;80;25470;-50
2023/11/15 04:17:15;;;;;;;8.60;3.65;;;;;;;9.34;91.85;98617.66;1754430;81;25565;-52
2023/11/15 04:19:42;;;;;;;9.98;3.35;;;;;;;9.34;91.86;98611.48;1754389;81;27900;-50
2023/11/15 04:22:08;;;;;;;12.45;3.60;;;;;;;9.34;91.85;98618.23;1754282;81;25590;-51
2023/11/15 04:24:39;;;;;;;12.28;3.33;;;;;;;9.34;91.96;98611.48;1737294;81;25690;-50
2023/11/15 04:27:06;;;;;;;8.70;3.20;;;;;;;9.33;91.93;98612.60;1754443;81;25602;-52
2023/11/15 04:29:33;;;;;;;10.53;3.77;;;;;;;9.33;92.02;98618.80;1754438;81;25214;-51
2023/11/15 04:32:00;;;;;;;8.58;3.30;;;;;;;9.33;92.14;98619.34;1757391;80;27888;-52
2023/11/15 04:34:27;;;;;;;11.68;3.65;;;;;;;9.33;92.17;98620.16;1811814;79;25630;-50
2023/11/15 04:36:54;;;;;;;12.82;4.55;;;;;;;9.35;92.27;98625.21;1811893;79;25711;-52
2023/11/15 04:39:22;;;;;;;11.03;3.72;;;;;;;9.34;92.30;98616.88;1811862;79;26131;-51
2023/11/15 04:41:49;;;;;;;8.73;3.27;;;;;;;9.35;92.23;98619.81;1811963;79;25576;-52
2023/11/15 04:44:16;;;;;;;10.00;3.62;;;;;;;9.35;92.32;98613.84;1811874;79;27316;-51
2023/11/15 04:46:43;;;;;;;11.60;3.58;;;;;;;9.37;92.38;98611.38;1811769;79;25731;-51
2023/11/15 04:49:10;;;;;;;13.48;3.98;;;;;;;9.34;92.58;98609.56;1811923;79;25409;-51
2023/11/15 04:51:36;;;;;;;10.00;4.05;;;;;;;9.35;92.64;98617.12;1811853;79;25668;-52
2023/11/15 04:54:05;;;;;;;9.70;3.27;;;;;;;9.34;92.70;98606.87;1811969;79;25564;-50
2023/11/15 04:56:34;;;;;;;11.33;3.65;;;;;;;9.35;92.74;98615.20;1812020;79;27258;-50
2023/11/15 04:59:02;;;;;;;7.03;3.80;;;;;;;9.32;92.81;98610.48;1811937;79;25600;-51
2023/11/15 05:01:29;;;;;;;9.88;3.58;;;;;;;9.33;92.84;98614.76;1811870;79;25348;-51
2023/11/15 05:03:57;;;;;;;8.98;3.70;;;;;;;9.33;92.85;98622.05;1811878;79;25626;-51
2023/11/15 05:06:24;;;;;;;11.05;3.47;;;;;;;9.32;93.23;98623.19;1812007;79;25563;-52
2023/11/15 05:08:51;;;;;;;10.78;4.12;;;;;;;9.31;93.23;98621.61;1791594;79;27882;-51
2023/11/15 05:11:18;;;;;;;10.43;4.83;;;;;;;9.30;93.72;98614.66;1811767;79;25523;-53
2023/11/15 05:13:45;;;;;;;9.25;3.85;;;;;;;9.28;93.68;98618.23;1791218;79;25483;-51
2023/11/15 05:16:11;;;;;;;9.78;3.72;;;;;;;9.27;93.83;98624.20;1812619;78;25508;-51
2023/11/15 05:18:38;;;;;;;14.35;4.12;;;;;;;9.26;93.97;98615.09;1803927;79;25553;-50
2023/11/15 05:21:05;;;;;;;9.80;4.12;;;;;;;9.24;94.38;98618.13;1803925;79;27383;-50
2023/11/15 05:23:32;;;;;;;11.25;4.40;;;;;;;9.23;94.23;98615.77;1812433;79;25760;-51
2023/11/15 05:25:59;;;;;;;8.95;4.28;;;;;;;9.22;94.31;98620.39;1803930;79;25623;-51
2023/11/15 05:28:26;;;;;;;11.18;4.20;;;;;;;9.23;94.47;98622.52;1803857;79;25616;-52
2023/11/15 05:30:52;;;;;;;12.70;4.70;;;;;;;9.22;94.51;98623.66;1803913;79;25630;-50
2023/11/15 05:33:19;;;;;;;12.82;4.60;;;;;;;9.21;94.52;98621.53;1803791;79;27251;-54
2023/11/15 05:35:47;;;;;;;10.45;4.75;;;;;;;9.21;94.54;98624.78;1803811;79;25629;-50
2023/11/15 05:38:13;;;;;;;13.30;4.87;;;;;;;9.20;94.50;98632.66;1803894;79;25635;-52
2023/11/15 05:40:40;;;;;;;12.63;5.30;;;;;;;9.21;94.65;98628.82;1803845;78;26188;-51
2023/11/15 05:43:07;;;;;;;11.73;5.30;;;;;;;9.20;94.80;98632.09;1803913;79;25630;-51
2023/11/15 05:45:34;;;;;;;16.95;4.90;;;;;;;9.21;94.97;98640.42;1803915;79;26976;-51
2023/11/15 05:48:00;;;;;;;11.65;5.25;;;;;;;9.20;95.42;98631.31;1803766;79;25606;-50
2023/11/15 05:50:27;;;;;;;14.00;5.67;;;;;;;9.20;95.15;98640.19;1804002;79;25592;-51
2023/11/15 05:52:55;;;;;;;10.85;5.08;;;;;;;9.19;95.19;98643.22;1803857;79;26323;-50
2023/11/15 05:55:21;;;;;;;12.35;5.05;;;;;;;9.19;95.30;98643.22;1803667;79;25641;-55
2023/11/15 05:57:48;;;;;;;17.62;5.40;;;;;;;9.19;95.51;98646.69;1803915;79;27327;-55
2023/11/15 06:00:20;;;;;;;14.15;5.47;;;;;;;9.20;95.55;98651.55;1812376;79;25687;-52
2023/11/15 06:02:48;;;;;;;11.70;5.62;;;;;;;9.19;95.61;98658.83;1803928;79;25451;-50
2023/11/15 06:05:17;;;;;;;17.15;5.75;;;;;;;9.18;95.84;98653.23;1803853;79;25617;-52
2023/11/15 06:07:46;;;;;;;16.95;6.15;;;;;;;9.15;96.08;98648.52;1803929;79;25372;-51
2023/11/15 06:10:12;;;;;;;12.07;5.90;;;;;;;9.16;96.50;98659.53;1803899;79;27917;-50
2023/11/15 06:12:40;;;;;;;17.73;6.20;;;;;;;9.14;96.46;98655.83;1803832;79;25594;-50
2023/11/15 06:15:09;;;;;;;14.93;6.08;;;;;;;9.12;96.52;98658.05;1803986;79;25626;-50
2023/11/15 06:17:36;;;;;;;13.75;5.45;;;;;;;9.11;96.74;98663.23;1804156;79;34937;-51
2023/11/15 06:20:05;;;;;;;10.82;6.08;;;;;;;9.13;96.71;98664.25;1804061;79;25627;-50
2023/11/15 06:22:32;;;;;;;12.55;5.45;;;;;;;9.11;96.87;98665.16;1786577;79;27912;-50
2023/11/15 06:24:58;;;;;;;14.60;6.87;;;;;;;9.10;97.09;98670.31;1803275;79;25381;-53
2023/11/15 06:27:25;;;;;;;14.40;5.83;;;;;;;9.07;97.26;98665.59;1802658;79;25625;-51
2023/11/15 06:29:52;;;;;;;16.45;7.10;;;;;;;9.08;97.52;98670.66;1802539;79;25812;-50
2023/11/15 06:32:18;;;;;;;14.30;6.20;;;;;;;9.06;97.68;98664.02;1802559;79;26232;-50
2023/11/15 06:34:45;;;;;;;14.60;6.60;;;;;;;9.05;97.70;98668.63;1805275;79;27308;-52
2023/11/15 06:37:13;;;;;;;16.27;6.37;;;;;;;9.06;97.72;98677.50;1805421;79;25653;-53
2023/11/15 06:39:41;;;;;;;9.60;6.08;;;;;;;9.07;97.92;98675.03;1805279;79;25646;-54
2023/11/15 06:42:08;;;;;;;15.60;6.55;;;;;;;9.06;98.02;98677.50;1806229;79;25633;-54
2023/11/15 06:44:35;;;;;;;12.80;6.33;;;;;;;9.09;98.05;98679.52;1806910;78;25638;-51
2023/11/15 06:47:02;;;;;;;14.25;6.33;;;;;;;9.11;98.23;98686.73;1806872;79;27381;-53
2023/11/15 06:49:29;;;;;;;14.35;6.60;;;;;;;9.11;98.21;98686.73;1806806;79;26009;-54
2023/11/15 06:51:56;;;;;;;17.60;6.45;;;;;;;9.12;98.39;98689.08;1806883;79;25436;-54
2023/11/15 06:54:23;;;;;;;15.72;7.15;;;;;;;9.14;98.31;98694.13;1806832;79;25596;-50
2023/11/15 06:56:49;;;;;;;15.72;7.10;;;;;;;9.12;98.37;98689.64;1803978;79;25624;-52
2023/11/15 06:59:17;;;;;;;17.37;6.85;;;;;;;9.13;98.39;98690.66;1806942;79;27330;-55
2023/11/15 07:01:48;;;;;;;16.67;6.45;;;;;;;9.15;98.46;98690.32;1806800;79;25609;-51
2023/11/15 07:04:19;;;;;;;12.93;6.80;;;;;;;9.15;98.46;98688.97;1807030;79;25465;-54
2023/11/15 07:06:47;;;;;;;18.12;6.92;;;;;;;9.15;98.38;98693.80;1806885;79;25739;-51
2023/11/15 07:09:19;;;;;;;14.20;6.42;;;;;;;9.18;98.50;98699.63;1806924;79;25571;-54
2023/11/15 07:11:47;;;;;;;;;;;;;;;9.16;98.33;98695.38;1808789;79;27234;-51
2023/11/15 07:14:15;;;;;;;18.50;7.95;;;;;;;9.19;98.54;98697.17;1806849;79;25395;-55
2023/11/15 07:16:55;;;;;;;16.95;6.62;;;;;;;9.18;98.46;98701.79;1806944;79;25450;-55
2023/11/15 07:19:18;;;;;;;19.62;7.28;;;;;;;9.19;98.38;98704.70;1805670;79;27013;-55
2023/11/15 07:21:44;;;;;;;15.05;7.20;;;;;;;9.19;98.41;98700.65;1806959;79;25632;-55
2023/11/15 07:24:12;;;;;;;15.68;7.10;;;;;;;9.20;98.41;98711.67;1806948;79;27807;-49
2023/11/15 07:26:39;;;;;;;14.28;7.58;;;;;;;9.21;98.48;98708.41;1806753;79;25470;-51
2023/11/15 07:29:09;;;;;;;19.48;8.00;;;;;;;9.21;98.30;98716.50;1806876;78;25410;-51
2023/11/15 07:31:35;;;;;;;18.10;7.85;;;;;;;9.22;98.15;98707.30;1806859;79;29577;-51
2023/11/15 07:34:05;;;;;;;14.55;7.50;;;;;;;9.24;98.30;98718.53;1806798;79;25706;-51
2023/11/15 07:36:33;;;;;;;14.07;7.55;;;;;;;9.26;98.33;98722.47;1807045;79;27250;-50
2023/11/15 07:39:02;;;;;;;16.17;7.20;;;;;;;9.26;98.44;98725.17;1806749;79;25569;-51
2023/11/15 07:41:28;;;;;;;18.10;8.03;;;;;;;9.30;98.47;98721.23;1806995;79;25634;-51
2023/11/15 07:43:55;;;;;;;21.77;8.28;;;;;;;9.32;98.47;98719.75;1806830;79;25715;-50
2023/11/15 07:46:24;;;;;;;11.43;7.65;;;;;;;9.33;98.35;98725.39;1806909;79;25397;-50
2023/11/15 07:48:51;;;;;;;13.72;7.35;;;;;;;9.38;98.58;98729.77;1806859;79;27315;-51
2023/11/15 07:51:19;;;;;;;14.23;7.42;;;;;;;9.43;98.72;98732.78;1806775;79;25562;-52
2023/11/15 07:53:48;;;;;;;13.98;7.62;;;;;;;9.48;98.79;98742.00;1806829;79;25648;-53
2023/11/15 07:56:19;;;;;;;19.02;7.55;;;;;;;9.51;98.62;98730.53;1806985;79;25695;-50
2023/11/15 07:58:46;;;;;;;13.28;7.58;;;;;;;9.55;98.40;98727.36;1806868;79;25433;-52
2023/11/15 08:01:14;;;;;;;10.70;6.95;;;;;;;9.59;98.34;98736.37;1806807;79;27923;-49
2023/11/15 08:03:41;;;;;;;12.43;7.50;;;;;;;9.62;98.41;98741.10;1806752;79;25663;-51
2023/11/15 08:06:09;;;;;;;14.15;7.58;;;;;;;9.62;97.86;98742.45;1806847;79;25449;-50
2023/11/15 08:08:38;;;;;;;12.70;7.28;;;;;;;9.63;97.69;98748.63;1806836;79;25613;-51
2023/11/15 08:11:05;;;;;;;14.23;7.35;;;;;;;9.63;97.52;98747.28;1806386;79;25518;-57
2023/11/15 08:13:31;;;;;;;12.63;7.30;;;;;;;9.64;97.48;98753.69;1806912;79;27301;-55
2023/11/15 08:15:58;;;;;;;13.32;7.85;;;;;;;9.64;97.27;98757.73;1806826;79;25654;-57
2023/11/15 08:18:27;;;;;;;16.30;6.97;;;;;;;9.62;97.01;98752.44;1807078;79;25186;-52
2023/11/15 08:20:56;;;;;;;12.15;7.05;;;;;;;9.62;96.91;98760.00;1806840;79;25660;-51
2023/11/15 08:23:25;;;;;;;11.93;7.08;;;;;;;9.61;96.81;98765.16;1806820;79;25358;-52
2023/11/15 08:25:55;;;;;;;14.58;6.85;;;;;;;9.58;96.51;98752.34;1806954;78;27561;-52
2023/11/15 08:28:24;;;;;;;13.43;6.70;;;;;;;9.52;96.34;98757.19;1806882;78;25568;-53
2023/11/15 08:30:53;;;;;;;10.68;6.90;;;;;;;9.52;96.73;98759.11;1806960;79;25422;-51
2023/11/15 08:33:22;;;;;;;11.53;7.10;;;;;;;9.49;96.85;98761.13;1806329;79;26402;-55
2023/11/15 08:35:51;;;;;;;11.83;6.62;;;;;;;9.50;97.05;98762.69;1804076;79;25452;-50
2023/11/15 08:38:24;;;;;;;10.23;5.95;;;;;;;9.48;96.95;98777.09;1804109;79;31262;-50
2023/11/15 08:40:55;;;;;;;13.98;6.22;;;;;;;9.46;97.02;98777.99;1803993;79;25197;-54
2023/11/15 08:43:25;;;;;;;11.95;6.25;;;;;;;9.45;97.30;98779.11;1804078;79;25464;-51
2023/11/15 08:45:52;;;;;;;8.83;5.33;;;;;;;9.49;97.64;98781.37;1804009;79;32285;-53
2023/11/15 08:48:21;;;;;;;9.78;5.72;;;;;;;9.50;97.42;98781.58;1803961;79;25588;-51
2023/11/15 08:50:50;;;;;;;9.93;6.05;;;;;;;9.51;97.37;98779.89;1804116;79;27364;-52
2023/11/15 08:53:24;;;;;;;11.15;5.70;;;;;;;9.53;97.71;98780.37;1804029;79;25510;-52
2023/11/15 08:55:49;;;;;;;9.85;5.55;;;;;;;9.58;97.76;98787.42;1803070;79;25691;-50
2023/11/15 08:58:18;;;;;;;9.65;5.75;;;;;;;9.58;97.38;98782.03;1804105;79;25734;-52
2023/11/15 09:00:49;;;;;;;10.13;6.47;;;;;;;9.59;97.09;98787.66;1804125;79;32362;-50
2023/11/15 09:03:18;;;;;;;10.32;6.12;;;;;;;9.62;97.35;98787.53;1803997;79;27416;-52
2023/11/15 09:05:49;;;;;;;7.97;5.90;;;;;;;9.68;97.39;98784.27;1803963;79;26092;-52
2023/11/15 09:08:21;;;;;;;10.88;6.20;;;;;;;9.71;97.00;98793.62;1803928;79;25357;-51
2023/11/15 09:10:52;;;;;;;10.95;6.15;;;;;;;9.93;98.38;98799.64;1804038;79;25628;-51
2023/11/15 09:13:23;;;;;;;12.60;6.00;;;;;;;10.03;97.22;98802.67;1804080;79;25617;-49
2023/11/15 09:15:52;;;;;;;14.28;5.78;;;;;;;10.16;97.19;98808.04;1803948;79;28829;-50
2023/11/15 09:18:23;;;;;;;11.85;5.53;;;;;;;10.25;97.20;98802.73;1803960;79;25624;-52
2023/11/15 09:20:54;;;;;;;7.55;4.95;;;;;;;10.29;96.07;98807.66;1803992;79;25542;-54
2023/11/15 09:23:24;;;;;;;9.45;5.60;;;;;;;10.30;94.83;98809.81;1803969;79;25618;-53
2023/11/15 09:25:53;;;;;;;10.25;5.62;;;;;;;10.40;95.14;98812.06;1803949;79;25229;-53
2023/11/15 09:28:21;;;;;;;9.00;5.35;;;;;;;10.58;94.89;98816.59;1804137;79;27742;-54
2023/11/15 09:30:52;;;;;;;7.85;4.85;;;;;;;10.65;93.98;98818.13;1804009;79;25395;-54
2023/11/15 09:33:22;;;;;;;7.72;5.28;;;;;;;10.68;93.91;98811.27;1803924;79;25614;-52
2023/11/15 09:35:49;;;;;;;7.67;4.42;;;;;;;10.82;94.70;98812.20;1803933;79;25634;-52
2023/11/15 09:38:18;;;;;;;6.90;4.20;;;;;;;10.92;92.79;98810.34;1803936;79;25620;-51
2023/11/15 09:40:49;;;;;;;7.53;4.15;;;;;;;10.97;92.08;98811.44;1804011;78;27378;-53
2023/11/15 09:43:19;;;;;;;7.10;4.20;;;;;;;11.08;90.33;98816.34;1803862;79;25589;-49
2023/11/15 09:45:51;;;;;;;7.53;4.47;;;;;;;11.12;91.41;98813.95;1803937;79;25474;-51
2023/11/15 09:48:21;;;;;;;7.25;3.37;;;;;;;11.25;90.10;98828.74;1797193;79;25653;-51
2023/11/15 09:50:51;;;;;;;7.55;3.77;;;;;;;11.29;89.39;98816.88;1804121;79;33427;-50
2023/11/15 09:53:24;;;;;;;4.25;2.90;;;;;;;11.35;88.94;98824.94;1785504;79;27855;-54
2023/11/15 09:55:52;;;;;;;7.97;3.20;;;;;;;11.39;88.83;98826.38;1811863;79;25910;-52
2023/11/15 09:58:22;;;;;;;8.80;2.80;;;;;;;11.49;89.00;98818.30;1778201;80;25440;-53
2023/11/15 10:00:49;;;;;;;6.85;3.10;;;;;;;11.55;87.39;98823.67;1811786;79;25910;-52
2023/11/15 10:03:19;;;;;;;7.17;2.50;;;;;;;11.51;87.64;98832.27;1811843;79;25379;-55
2023/11/15 10:05:59;;;;;;;6.12;2.72;;;;;;;11.52;86.54;98830.56;1811871;79;27436;-52
2023/11/15 10:08:28;;;;;;;4.62;2.80;;;;;;;11.47;85.85;98835.47;1811773;79;25606;-52
2023/11/15 10:11:06;;;;;;;4.75;2.98;;;;;;;11.47;85.98;98837.59;1812007;79;25640;-50
2023/11/15 10:13:37;;;;;;;5.92;2.83;;;;;;;11.53;85.88;98836.78;1811962;79;25696;-52
2023/11/15 10:16:25;;;;;;;6.35;3.05;;;;;;;11.75;86.21;98838.08;1811889;79;25618;-54
2023/11/15 10:18:55;;;;;;;4.92;2.75;;;;;;;11.93;86.39;98827.66;1801596;79;28013;-54
2023/11/15 10:21:22;;;;;;;4.75;2.35;;;;;;;12.09;84.46;98836.53;1803852;79;25358;-52
2023/11/15 10:23:54;;;;;;;4.90;2.85;;;;;;;12.11;83.75;98837.54;1803920;79;25182;-52
2023/11/15 10:26:28;;;;;;;5.90;2.70;;;;;;;12.06;83.49;98831.04;1804129;79;25708;-50
2023/11/15 10:29:01;;;;;;;4.28;2.40;;;;;;;12.15;82.88;98834.33;1798972;79;25406;-52
2023/11/15 10:31:32;;;;;;;5.33;2.80;;;;;;;12.06;82.71;98834.53;1804034;79;27363;-53
2023/11/15 10:34:03;;;;;;;4.35;2.30;;;;;;;11.92;82.18;98830.16;1804116;78;25711;-52
2023/11/15 10:36:33;;;;;;;3.70;2.95;;;;;;;11.82;82.08;98823.91;1777256;78;25513;-50
2023/11/15 10:39:05;;;;;;;8.55;2.87;;;;;;;11.69;81.39;98828.06;1806774;79;26372;-54
2023/11/15 10:41:34;;;;;;;3.98;2.83;;;;;;;11.52;82.09;98837.34;1806835;79;25724;-51
2023/11/15 10:44:07;;;;;;;3.60;2.42;;;;;;;11.38;82.01;98845.91;1806784;79;27373;-52
2023/11/15 10:46:40;;;;;;;4.65;2.90;;;;;;;11.28;82.36;98836.95;1806711;79;25567;-50
2023/11/15 10:49:13;;;;;;;6.45;3.33;;;;;;;11.18;82.41;98847.72;1806625;79;25554;-50
2023/11/15 10:51:47;;;;;;;10.58;3.02;;;;;;;11.06;82.43;98844.31;1806830;79;25626;-51
2023/11/15 10:54:19;;;;;;;14.80;11.73;;;;;;;10.95;82.94;98843.47;1806839;79;25198;-54
2023/11/15 10:56:49;;;;;;;8.70;4.80;;;;;;;10.87;83.01;98861.22;1806869;79;27308;-53
2023/11/15 10:59:19;;;;;;;13.55;8.85;;;;;;;10.73;83.01;98854.28;1806692;79;25469;-50
2023/11/15 11:01:49;;;;;;;8.15;3.70;;;;;;;10.60;83.26;98847.34;1806863;79;25602;-52
2023/11/15 11:04:16;;;;;;;7.37;4.10;;;;;;;10.54;83.74;98851.41;1806868;78;25680;-53
2023/11/15 11:06:54;;;;;;;7.53;4.58;;;;;;;10.50;84.27;98855.95;1806908;79;25555;-50
2023/11/15 11:09:50;;;;;;;10.50;5.20;;;;;;;10.50;84.85;98854.59;1806992;79;27432;-51
2023/11/15 11:12:25;;;;;;;7.53;5.08;;;;;;;10.49;84.67;98857.06;1806872;79;25451;-52
2023/11/15 11:15:12;;;;;;;7.90;5.65;;;;;;;10.44;84.97;98866.22;1806131;79;25194;-55
2023/11/15 11:17:39;;;;;;;7.83;4.95;;;;;;;10.41;85.20;98866.90;1806957;79;25628;-52
2023/11/15 11:20:11;;;;;;;15.65;6.95;;;;;;;10.35;85.41;98872.31;1807111;79;25369;-50
2023/11/15 11:22:43;;;;;;;9.43;5.33;;;;;;;10.33;85.78;98871.87;1796290;79;27328;-50
2023/11/15 11:25:21;;;;;;;9.85;5.62;;;;;;;10.38;86.39;98873.77;1799425;79;25455;-51
2023/11/15 11:28:01;;;;;;;11.20;5.20;;;;;;;10.44;86.94;98869.70;1806906;79;25577;-52
2023/11/15 11:30:28;;;;;;;12.28;5.53;;;;;;;10.51;86.97;98879.16;1806969;79;25607;-49
2023/11/15 11:33:18;;;;;;;10.58;4.40;;;;;;;10.53;86.63;98873.61;1806908;79;25445;-50
2023/11/15 11:35:46;;;;;;;7.00;4.55;;;;;;;10.56;86.63;98876.98;1798718;79;27311;-51
2023/11/15 11:38:41;;;;;;;11.90;5.20;;;;;;;10.61;86.47;98885.43;1796032;79;25605;-51
2023/11/15 11:41:08;;;;;;;8.38;4.60;;;;;;;10.59;85.88;98884.42;1796111;79;25392;-52